Αναφορές Αεροδρομίων

 

KSJC - San Jose, California, USA
Distance from station: ΒΑ 14km
Ενημερώθηκε: 16/04/2021 01:53
Few Clouds
Few Clouds
 Ανεμος από Β
Ανεμος: Β 22 km/h
Θερμοκρασία: 19°C
Σημείο Δρόσου: 7°C
Υγρασία: 46%
Βαρόμετρο: 1015.9 hPa
Clouds: Few Clouds
Visibility: 16 km
Cloud details: Few Clouds 975 m
2021/04/15 22:53 KSJC 152253Z 35012KT 10SM FEW032 19/07 A3000 RMK AO2 SLP158 T01940072
KNUQ - Moffett Nas/Mtn, California, USA
Distance from station: Β 14km
Ενημερώθηκε: 14/04/2021 01:40
NOT Current

 
2021/04/13 22:40 KNUQ 132240Z AUTO RMK AO2 PNO PWINO TSNO
 
KPAO - Palo Alto, California, USA
Distance from station: ΒΒΔ 23km
Ενημερώθηκε: 16/04/2021 01:47
Αίθριος
Αίθριος
 Ανεμος από ΒΒΔ
Ανεμος: ΒΒΔ 30 km/h
Θερμοκρασία: 17°C
Σημείο Δρόσου: 8°C
Υγρασία: 56%
Βαρόμετρο: 1016.3 hPa
Clouds: Αίθριος
Visibility: 16 km
2021/04/15 22:47 KPAO 152247Z 34016KT 10SM SKC 17/08 A3001
KRHV - San Jose/Reid, California, USA
Distance from station: ΑΒΑ 19km
Ενημερώθηκε: 16/04/2021 01:47
Αίθριος
Αίθριος
 Ανεμος από ΒΔ
Ανεμος: ΒΔ 19 km/h, Ριπή: 33 km/h
Θερμοκρασία: 21°C
Σημείο Δρόσου: 7°C
Υγρασία: 40%
Βαρόμετρο: 1015.9 hPa
Clouds: Αίθριος
Visibility: 16 km
2021/04/15 22:47 KRHV 152247Z 31010G18KT 10SM SKC 21/07 A3000
 
KOAK - Oakland, California, USA
Distance from station: ΒΒΔ 50km
Ενημερώθηκε: 16/04/2021 01:53
Few Clouds
Few Clouds
 Ανεμος από Δ
Ανεμος: Δ 20 km/h
Θερμοκρασία: 16°C
Σημείο Δρόσου: 7°C
Υγρασία: 55%
Βαρόμετρο: 1017.3 hPa
Clouds: Few Clouds
Visibility: 16 km
Cloud details: Few Clouds 366 m
2021/04/15 22:53 KOAK 152253Z 28011KT 10SM FEW012 16/07 A3004 RMK AO2 SLP171 T01560072
KSQL - San Carlos Airpo, California, USA
Distance from station: ΒΔ 34km
Ενημερώθηκε: 16/04/2021 01:47
Αίθριος
Αίθριος
 Ανεμος από ΒΔ
Ανεμος: ΒΔ 22 km/h
Θερμοκρασία: 18°C
Σημείο Δρόσου: 3°C
Υγρασία: 37%
Βαρόμετρο: 1016.6 hPa
Clouds: Αίθριος
Visibility: 16 km
2021/04/15 22:47 KSQL 152247Z 31012KT 10SM SKC 18/03 A3002
 
KSFO - San Francisco, California, USA
Distance from station: ΒΔ 49km
Ενημερώθηκε: 16/04/2021 01:56
Few Clouds
Few Clouds
 Ανεμος από ΔΒΔ
Ανεμος: ΔΒΔ 33 km/h
Θερμοκρασία: 16°C
Σημείο Δρόσου: 7°C
Υγρασία: 55%
Βαρόμετρο: 1016.6 hPa
Clouds: Few Clouds
Visibility: 16 km
Cloud details: Few Clouds 457 m
Few Clouds 1067 m
2021/04/15 22:56 KSFO 152256Z 29018KT 10SM FEW015 FEW035 16/07 A3002 RMK AO2 SLP167 T01610067
KE16 - San Martin, California, USA
Distance from station: ΑΝΑ 43km
Ενημερώθηκε: 16/04/2021 01:55
Αίθριος
Αίθριος
 Ανεμος από ΝΝΔ
Ανεμος: ΝΝΔ 24 km/h, Ριπή: 33 km/h
Θερμοκρασία: 20°C
Σημείο Δρόσου: 4°C
Υγρασία: 35%
Βαρόμετρο: 1015.9 hPa
Clouds: Αίθριος
Visibility: 16 km
2021/04/15 22:55 KE16 152255Z AUTO 20013G18KT 10SM CLR 20/04 A3000 RMK AO2 PWINO PNO
 
KWVI - Watsonville, California, USA
Distance from station: ΝΝΑ 44km
Ενημερώθηκε: 16/04/2021 01:53
Αίθριος
Αίθριος
 Ανεμος από ΔΝΔ
Ανεμος: ΔΝΔ 17 km/h
Θερμοκρασία: 14°C
Σημείο Δρόσου: 8°C
Υγρασία: 67%
Βαρόμετρο: 1017.6 hPa
Clouds: Αίθριος
Visibility: 16 km
2021/04/15 22:53 KWVI 152253Z AUTO 25009KT 10SM CLR 14/08 A3005 RMK AO2 SLP177 T01440083
KHAF - Half Moon Bay, California, USA
Distance from station: ΔΒΔ 50km
Ενημερώθηκε: 16/04/2021 01:55
Haze, Few clouds
Haze, Few clouds
 Ανεμος από Δ
Ανεμος: Δ 13 km/h
Θερμοκρασία: 12°C
Σημείο Δρόσου: 8°C
Υγρασία: 77%
Βαρόμετρο: 1017.9 hPa
Περίληψη: Haze
Clouds: Few Clouds
Visibility: 8 km
Cloud details: Few Clouds 427 m
2021/04/15 22:55 KHAF 152255Z AUTO 28007KT 5SM HZ FEW014 12/08 A3006 RMK AO2
 
KHWD - Hayward, California, USA
Distance from station: Β 44km
Ενημερώθηκε: 16/04/2021 01:54
Αίθριος
Αίθριος
 Ανεμος από ΔΒΔ
Ανεμος: ΔΒΔ 26 km/h
Θερμοκρασία: 16°C
Σημείο Δρόσου: 6°C
Υγρασία: 52%
Βαρόμετρο: 1016.6 hPa
Clouds: Αίθριος
Visibility: 16 km
2021/04/15 22:54 KHWD 152254Z 29014KT 10SM CLR 16/06 A3002 RMK AO2 SLP176 T01610056
KLVK - Livermore, California, USA
Distance from station: ΒΒΑ 51km
Ενημερώθηκε: 16/04/2021 01:53
Αίθριος
Αίθριος
 Ανεμος από ΔΒΔ
Ανεμος: ΔΒΔ 22 km/h
Θερμοκρασία: 21°C
Σημείο Δρόσου: 2°C
Υγρασία: 29%
Βαρόμετρο: 1015.6 hPa
Clouds: Αίθριος
Visibility: 16 km
2021/04/15 22:53 KLVK 152253Z AUTO 29012KT 10SM CLR 21/02 A2999 RMK AO2 SLP153 T02110017